createdAt,value
2023-04-06T00:00:24.326Z,3.85
2023-04-06T00:03:30.608Z,3.72
2023-04-06T00:06:34.505Z,3.97
2023-04-06T00:09:38.071Z,2.50
2023-04-06T00:12:43.055Z,4.03
2023-04-06T00:15:46.740Z,3.90
2023-04-06T00:18:50.307Z,2.50
2023-04-06T00:21:53.773Z,4.10
2023-04-06T00:25:00.620Z,5.35
2023-04-06T00:28:06.971Z,8.52
2023-04-06T00:31:11.769Z,3.00
2023-04-06T00:34:16.848Z,5.07
2023-04-06T00:37:23.800Z,4.13
2023-04-06T00:40:29.394Z,4.30
2023-04-06T00:43:34.818Z,6.68
2023-04-06T00:46:38.445Z,7.15
2023-04-06T00:49:42.077Z,4.88
2023-04-06T00:52:46.266Z,5.47
2023-04-06T00:55:49.906Z,4.15
2023-04-06T00:58:57.171Z,4.78
2023-04-06T01:02:04.441Z,2.47
2023-04-06T01:05:21.627Z,13.57
2023-04-06T01:08:31.924Z,4.60
2023-04-06T01:11:48.798Z,6.85
2023-04-06T01:14:57.528Z,2.30
2023-04-06T01:18:03.338Z,3.25
2023-04-06T01:21:09.421Z,3.10
2023-04-06T01:24:42.192Z,7.20
2023-04-06T01:27:58.327Z,1.67
2023-04-06T01:31:20.848Z,4.93
2023-04-06T01:34:27.913Z,3.75
2023-04-06T01:37:35.970Z,3.42
2023-04-06T01:40:45.214Z,4.80
2023-04-06T01:43:55.341Z,2.85
2023-04-06T01:47:02.182Z,2.95
2023-04-06T01:50:07.140Z,4.05
2023-04-06T01:53:15.491Z,2.45
2023-04-06T01:56:21.061Z,3.90
2023-04-06T01:59:36.128Z,4.63
2023-04-06T02:02:45.855Z,5.13
2023-04-06T02:05:56.409Z,6.25
2023-04-06T02:09:11.102Z,6.25
2023-04-06T02:12:14.683Z,4.35
2023-04-06T02:15:19.843Z,4.93
2023-04-06T02:18:23.509Z,7.75
2023-04-06T02:21:27.779Z,4.15
2023-04-06T02:24:31.284Z,5.95
2023-04-06T02:27:35.038Z,4.22
2023-04-06T02:30:39.869Z,3.38
2023-04-06T02:33:43.828Z,6.68
2023-04-06T02:36:49.802Z,4.85
2023-04-06T02:39:53.481Z,6.32
2023-04-06T02:42:57.176Z,2.95
2023-04-06T02:46:07.673Z,8.05
2023-04-06T02:49:15.129Z,4.78
2023-04-06T02:52:22.017Z,3.95
2023-04-06T02:55:25.883Z,6.55
2023-04-06T02:58:30.564Z,8.00
2023-04-06T03:01:37.214Z,4.47
2023-04-06T03:04:43.849Z,4.30
2023-04-06T03:07:57.760Z,5.00
2023-04-06T03:11:12.025Z,5.82
2023-04-06T03:14:22.488Z,9.43
2023-04-06T03:17:28.293Z,5.68
2023-04-06T03:20:37.352Z,4.47
2023-04-06T03:23:41.223Z,3.63
2023-04-06T03:26:44.982Z,5.82
2023-04-06T03:29:48.615Z,4.60
2023-04-06T03:33:02.770Z,3.30
2023-04-06T03:36:10.793Z,4.88
2023-04-06T03:39:18.100Z,4.88
2023-04-06T03:42:21.782Z,2.92
2023-04-06T03:45:33.222Z,3.70
2023-04-06T03:48:38.536Z,2.67
2023-04-06T03:51:43.877Z,3.22
2023-04-06T03:54:47.428Z,4.07
2023-04-06T03:57:50.797Z,3.70
2023-04-06T04:00:55.168Z,5.72
2023-04-06T04:04:00.276Z,4.10
2023-04-06T04:07:04.099Z,4.85
2023-04-06T04:10:08.014Z,7.72
2023-04-06T04:13:11.453Z,5.90
2023-04-06T04:16:15.600Z,7.35
2023-04-06T04:19:20.536Z,6.35
2023-04-06T04:22:23.968Z,4.90
2023-04-06T04:25:28.368Z,5.00
2023-04-06T04:28:31.893Z,8.10
2023-04-06T04:31:35.716Z,5.50
2023-04-06T04:34:45.296Z,5.70
2023-04-06T04:37:59.047Z,4.68
2023-04-06T04:41:03.070Z,7.35
2023-04-06T04:44:07.434Z,4.93
2023-04-06T04:47:13.195Z,8.23
2023-04-06T04:50:23.421Z,4.10
2023-04-06T04:53:31.483Z,6.88
2023-04-06T04:56:41.071Z,6.60
2023-04-06T05:00:03.864Z,7.32
2023-04-06T05:03:09.047Z,8.18
2023-04-06T05:06:17.259Z,7.57
2023-04-06T05:09:21.416Z,3.97
2023-04-06T05:12:25.067Z,6.85
2023-04-06T05:15:41.199Z,7.90
2023-04-06T05:18:57.682Z,7.03
2023-04-06T05:22:05.960Z,5.72
2023-04-06T05:25:12.955Z,6.95
2023-04-06T05:28:18.011Z,4.82
2023-04-06T05:31:25.533Z,4.40
2023-04-06T05:34:31.007Z,7.95
2023-04-06T05:37:39.107Z,4.72
2023-04-06T05:40:43.710Z,6.97
2023-04-06T05:43:51.484Z,8.02
2023-04-06T05:46:55.239Z,6.85
2023-04-06T05:50:01.887Z,6.03
2023-04-06T05:53:17.506Z,5.43
2023-04-06T05:56:31.121Z,8.32
2023-04-06T05:59:35.071Z,8.02
2023-04-06T06:02:40.523Z,9.48
2023-04-06T06:05:47.919Z,9.02
2023-04-06T06:09:01.807Z,9.85
2023-04-06T06:12:08.378Z,8.93
2023-04-06T06:15:12.578Z,7.15
2023-04-06T06:18:21.168Z,15.32
2023-04-06T06:21:27.792Z,9.98
2023-04-06T06:24:34.776Z,17.33
2023-04-06T06:27:39.388Z,12.13
2023-04-06T06:30:49.585Z,12.60
2023-04-06T06:33:58.334Z,7.85
2023-04-06T06:37:03.810Z,8.80
2023-04-06T06:40:10.429Z,14.10
2023-04-06T06:43:13.917Z,13.02
2023-04-06T06:46:27.850Z,17.10
2023-04-06T06:49:31.535Z,5.10
2023-04-06T06:52:35.027Z,8.18
2023-04-06T06:55:41.580Z,11.35
2023-04-06T06:58:45.993Z,6.47
2023-04-06T07:01:49.618Z,5.85
2023-04-06T07:04:53.074Z,7.18
2023-04-06T07:07:56.941Z,6.32
2023-04-06T07:11:02.087Z,7.35
2023-04-06T07:14:06.464Z,6.15
2023-04-06T07:17:11.233Z,6.13
2023-04-06T07:20:15.820Z,8.57
2023-04-06T07:23:21.610Z,5.95
2023-04-06T07:26:26.868Z,5.95
2023-04-06T07:29:30.266Z,6.95
2023-04-06T07:32:35.796Z,8.02
2023-04-06T07:35:40.591Z,6.07
2023-04-06T07:38:46.910Z,5.78
2023-04-06T07:41:56.373Z,12.55
2023-04-06T07:45:00.175Z,15.90
2023-04-06T07:48:03.844Z,14.73
2023-04-06T07:51:09.732Z,5.95
2023-04-06T07:54:16.768Z,9.32
2023-04-06T07:57:21.731Z,4.38
2023-04-06T08:00:25.422Z,7.43
2023-04-06T08:03:32.166Z,6.30
2023-04-06T08:06:37.388Z,8.32
2023-04-06T08:09:40.867Z,6.90
2023-04-06T08:12:45.830Z,4.45
2023-04-06T08:15:55.903Z,6.38
2023-04-06T08:18:59.431Z,4.55
2023-04-06T08:22:04.258Z,4.60
2023-04-06T08:25:08.193Z,5.60
2023-04-06T08:28:13.109Z,6.80
2023-04-06T08:31:16.666Z,4.13
2023-04-06T08:34:20.222Z,3.83
2023-04-06T08:37:24.159Z,4.50
2023-04-06T08:40:27.921Z,4.30
2023-04-06T08:43:33.027Z,4.93
2023-04-06T08:46:37.746Z,4.97
2023-04-06T08:49:41.392Z,5.60
2023-04-06T08:52:46.011Z,5.03
2023-04-06T08:55:49.933Z,5.75
2023-04-06T08:58:56.187Z,3.00
2023-04-06T09:02:06.295Z,3.72
2023-04-06T09:05:11.213Z,4.25
2023-04-06T09:08:14.799Z,5.43
2023-04-06T09:11:18.223Z,3.00
2023-04-06T09:14:37.543Z,5.45
2023-04-06T09:17:47.170Z,3.55
2023-04-06T09:20:59.323Z,4.57
2023-04-06T09:24:03.056Z,4.15
2023-04-06T09:27:10.220Z,3.20
2023-04-06T09:30:19.833Z,3.97
2023-04-06T09:33:26.533Z,5.50
2023-04-06T09:36:33.510Z,2.83
2023-04-06T09:39:40.355Z,6.18
2023-04-06T09:42:45.003Z,1.98
2023-04-06T09:45:48.558Z,4.93
2023-04-06T09:48:54.503Z,4.53
2023-04-06T09:51:59.958Z,4.63
2023-04-06T09:55:11.223Z,8.30
2023-04-06T09:58:20.166Z,4.40
2023-04-06T10:01:27.583Z,3.90
2023-04-06T10:04:39.833Z,5.20
2023-04-06T10:07:57.195Z,5.43
2023-04-06T10:11:04.390Z,4.30
2023-04-06T10:14:08.465Z,4.00
2023-04-06T10:17:12.624Z,6.15
2023-04-06T10:20:25.705Z,2.67
2023-04-06T10:23:32.712Z,4.70
2023-04-06T10:26:36.425Z,4.65
2023-04-06T10:29:47.514Z,3.90
2023-04-06T10:32:51.312Z,5.38
2023-04-06T10:35:56.791Z,4.00
2023-04-06T10:39:01.396Z,4.07
2023-04-06T10:42:09.390Z,4.22
2023-04-06T10:45:21.939Z,6.22
2023-04-06T10:48:26.533Z,5.30
2023-04-06T10:51:40.560Z,3.42
2023-04-06T10:54:47.826Z,12.30
2023-04-06T10:57:52.776Z,6.43
2023-04-06T11:00:57.417Z,7.82
2023-04-06T11:04:01.371Z,4.70
2023-04-06T11:07:06.687Z,3.90
2023-04-06T11:10:16.947Z,5.32
2023-04-06T11:13:22.227Z,8.35
2023-04-06T11:16:26.366Z,3.40
2023-04-06T11:19:30.103Z,6.55
2023-04-06T11:22:34.979Z,4.55
2023-04-06T11:25:43.387Z,7.40
2023-04-06T11:28:51.366Z,6.50
2023-04-06T11:31:56.496Z,7.07
2023-04-06T11:35:01.097Z,6.22
2023-04-06T11:38:06.887Z,12.10
2023-04-06T11:41:10.628Z,6.35
2023-04-06T11:44:16.519Z,11.77
2023-04-06T11:47:20.040Z,7.05
2023-04-06T11:50:23.591Z,7.32
2023-04-06T11:53:29.417Z,8.90
2023-04-06T11:56:32.909Z,8.35
2023-04-06T11:59:36.880Z,6.05
2023-04-06T12:02:40.780Z,4.30
2023-04-06T12:05:46.133Z,10.65
2023-04-06T12:08:51.425Z,9.02
2023-04-06T12:11:56.806Z,8.30
2023-04-06T12:15:00.852Z,7.78
2023-04-06T12:18:04.444Z,9.25
2023-04-06T12:21:08.138Z,12.38
2023-04-06T12:24:13.983Z,1.95
2023-04-06T12:27:17.618Z,6.22
2023-04-06T12:30:21.134Z,7.38
2023-04-06T12:33:24.642Z,10.77
2023-04-06T12:36:28.298Z,6.68
2023-04-06T12:39:34.404Z,7.65
2023-04-06T12:42:37.970Z,8.82
2023-04-06T12:45:42.106Z,9.57
2023-04-06T12:48:45.548Z,7.68
2023-04-06T12:51:49.118Z,7.15
2023-04-06T12:54:53.957Z,10.88
2023-04-06T12:57:57.506Z,7.43
2023-04-06T13:01:04.033Z,7.57
2023-04-06T13:04:07.960Z,8.38
2023-04-06T13:07:15.714Z,6.47
2023-04-06T13:10:20.812Z,8.90
2023-04-06T13:13:25.676Z,7.13
2023-04-06T13:16:30.132Z,8.27
2023-04-06T13:19:33.590Z,8.77
2023-04-06T13:22:37.337Z,13.63
2023-04-06T13:25:42.333Z,9.43
2023-04-06T13:28:53.120Z,10.57
2023-04-06T13:31:56.714Z,9.13
2023-04-06T13:35:01.800Z,7.28
2023-04-06T13:38:05.603Z,8.25
2023-04-06T13:41:10.774Z,7.85
2023-04-06T13:44:14.549Z,6.82
2023-04-06T13:47:18.584Z,6.00
2023-04-06T13:50:22.094Z,10.30
2023-04-06T13:53:27.638Z,10.38
2023-04-06T13:56:32.901Z,6.55
2023-04-06T13:59:38.486Z,13.70
2023-04-06T14:02:43.066Z,10.60
2023-04-06T14:05:47.416Z,6.20
2023-04-06T14:08:51.306Z,6.85
2023-04-06T14:11:56.340Z,10.00
2023-04-06T14:15:00.444Z,9.55
2023-04-06T14:18:04.410Z,7.05
2023-04-06T14:21:07.984Z,8.40
2023-04-06T14:24:11.640Z,8.02
2023-04-06T14:27:16.609Z,10.05
2023-04-06T14:30:26.954Z,6.10
2023-04-06T14:33:33.707Z,6.18
2023-04-06T14:36:39.171Z,7.53
2023-04-06T14:39:42.651Z,6.60
2023-04-06T14:42:47.471Z,10.25
2023-04-06T14:45:51.762Z,10.48
2023-04-06T14:48:57.093Z,6.65
2023-04-06T14:52:02.533Z,9.02
2023-04-06T14:55:06.487Z,6.65
2023-04-06T14:58:12.262Z,9.05
2023-04-06T15:01:23.276Z,10.98
2023-04-06T15:04:36.784Z,5.53
2023-04-06T15:07:42.991Z,7.05
2023-04-06T15:10:46.927Z,5.63
2023-04-06T15:13:53.745Z,11.07
2023-04-06T15:16:57.219Z,8.00
2023-04-06T15:20:00.678Z,5.20
2023-04-06T15:23:04.441Z,6.93
2023-04-06T15:26:08.071Z,7.10
2023-04-06T15:29:12.793Z,5.05
2023-04-06T15:32:16.386Z,10.77
2023-04-06T15:35:19.891Z,7.50
2023-04-06T15:38:23.683Z,5.90
2023-04-06T15:41:28.428Z,5.15
2023-04-06T15:44:33.123Z,6.18
2023-04-06T15:47:36.614Z,6.80
2023-04-06T15:50:46.234Z,5.68
2023-04-06T15:53:49.664Z,5.72
2023-04-06T15:56:53.402Z,5.75
2023-04-06T15:59:58.169Z,8.43
2023-04-06T16:03:01.621Z,6.03
2023-04-06T16:06:08.985Z,5.35
2023-04-06T16:09:29.687Z,8.15
2023-04-06T16:12:33.909Z,6.55
2023-04-06T16:15:41.670Z,5.95
2023-04-06T16:18:45.212Z,5.75
2023-04-06T16:21:48.599Z,6.70
2023-04-06T16:24:52.713Z,5.90
2023-04-06T16:27:56.150Z,7.88
2023-04-06T16:31:01.475Z,6.47
2023-04-06T16:34:04.782Z,5.05
2023-04-06T16:37:08.191Z,4.57
2023-04-06T16:40:12.067Z,6.60
2023-04-06T16:43:18.880Z,4.95
2023-04-06T16:46:23.664Z,5.50
2023-04-06T16:49:27.120Z,8.57
2023-04-06T16:52:30.585Z,10.55
2023-04-06T16:55:33.963Z,9.23
2023-04-06T16:58:37.727Z,6.50
2023-04-06T17:01:42.746Z,7.72
2023-04-06T17:04:46.416Z,6.68
2023-04-06T17:07:49.732Z,5.45
2023-04-06T17:10:59.647Z,6.15
2023-04-06T17:14:07.586Z,8.20
2023-04-06T17:17:13.752Z,9.93
2023-04-06T17:20:17.552Z,5.75
2023-04-06T17:23:21.237Z,9.60
2023-04-06T17:26:24.592Z,8.60
2023-04-06T17:29:27.917Z,7.45
2023-04-06T17:32:32.655Z,13.02
2023-04-06T17:35:36.328Z,13.30
2023-04-06T17:38:43.663Z,10.57
2023-04-06T17:41:47.611Z,10.00
2023-04-06T17:44:52.566Z,9.18
2023-04-06T17:47:58.062Z,8.75
2023-04-06T17:51:01.409Z,7.82
2023-04-06T17:54:04.888Z,9.18
2023-04-06T17:57:08.528Z,10.00
2023-04-06T18:00:12.574Z,8.85
2023-04-06T18:03:17.260Z,10.38
2023-04-06T18:06:21.290Z,11.82
2023-04-06T18:12:30.046Z,32.40
2023-04-06T18:15:33.484Z,139.20
2023-04-06T18:18:38.899Z,56.65
2023-04-06T18:21:42.582Z,16.70
2023-04-06T18:24:45.889Z,20.13
2023-04-06T18:27:49.158Z,15.57
2023-04-06T18:30:53.401Z,24.38
2023-04-06T18:33:58.520Z,11.60
2023-04-06T18:37:02.190Z,10.98
2023-04-06T18:40:06.015Z,17.48
2023-04-06T18:43:11.090Z,10.43
2023-04-06T18:46:14.556Z,11.88
2023-04-06T18:49:20.072Z,11.50
2023-04-06T18:52:26.605Z,13.77
2023-04-06T18:55:30.306Z,11.65
2023-04-06T18:58:33.548Z,29.20
2023-04-06T19:01:44.216Z,31.42
2023-04-06T19:04:49.443Z,20.40
2023-04-06T19:07:53.685Z,14.27
2023-04-06T19:10:57.175Z,17.33
2023-04-06T19:14:00.574Z,16.02
2023-04-06T19:17:04.066Z,17.05
2023-04-06T19:20:12.379Z,19.98
2023-04-06T19:23:16.431Z,14.05
2023-04-06T19:26:20.425Z,14.63
2023-04-06T19:29:24.436Z,15.32
2023-04-06T19:32:28.101Z,22.70
2023-04-06T19:35:33.689Z,10.80
2023-04-06T19:38:37.755Z,7.78
2023-04-06T19:41:41.336Z,16.75
2023-04-06T19:44:44.672Z,73.72
2023-04-06T19:47:48.334Z,74.60
2023-04-06T19:50:55.746Z,52.38
2023-04-06T19:53:59.094Z,39.20
2023-04-06T19:57:02.408Z,42.65
2023-04-06T20:00:06.093Z,40.88
2023-04-06T20:03:13.180Z,38.20
2023-04-06T20:06:18.253Z,43.67
2023-04-06T20:09:22.748Z,34.13
2023-04-06T20:12:26.212Z,42.63
2023-04-06T20:15:29.840Z,43.78
2023-04-06T20:18:33.599Z,33.17
2023-04-06T20:21:39.527Z,25.98
2023-04-06T20:24:44.195Z,23.02
2023-04-06T20:27:47.777Z,16.10
2023-04-06T20:30:52.953Z,13.60
2023-04-06T20:33:56.322Z,13.13
2023-04-06T20:37:00.983Z,11.88
2023-04-06T20:40:04.972Z,13.82
2023-04-06T20:43:10.471Z,12.45
2023-04-06T20:46:16.702Z,13.18
2023-04-06T20:49:23.351Z,12.18
2023-04-06T20:52:28.306Z,10.88
2023-04-06T20:55:31.868Z,10.00
2023-04-06T20:58:35.243Z,10.82
2023-04-06T21:01:38.957Z,13.23
2023-04-06T21:04:42.639Z,12.43
2023-04-06T21:07:47.519Z,16.33
2023-04-06T21:10:50.919Z,12.40
2023-04-06T21:13:54.948Z,11.48
2023-04-06T21:16:59.511Z,9.52
2023-04-06T21:20:03.822Z,10.88
2023-04-06T21:23:08.639Z,8.55
2023-04-06T21:26:16.268Z,12.32
2023-04-06T21:29:19.611Z,9.27
2023-04-06T21:32:22.952Z,25.25
2023-04-06T21:35:27.076Z,34.00
2023-04-06T21:38:31.825Z,26.77
2023-04-06T21:41:35.444Z,17.88
2023-04-06T21:44:38.727Z,15.90
2023-04-06T21:47:42.744Z,12.43
2023-04-06T21:50:46.687Z,16.23
2023-04-06T21:53:51.639Z,13.95
2023-04-06T21:56:56.027Z,18.17
2023-04-06T21:59:59.338Z,10.30
2023-04-06T22:03:02.787Z,16.23
2023-04-06T22:06:06.778Z,11.27
2023-04-06T22:09:11.542Z,10.50
2023-04-06T22:12:14.867Z,12.30
2023-04-06T22:15:18.268Z,12.43
2023-04-06T22:18:21.621Z,8.45
2023-04-06T22:21:26.449Z,14.43
2023-04-06T22:24:31.314Z,8.77
2023-04-06T22:27:34.599Z,10.70
2023-04-06T22:30:39.303Z,9.68
2023-04-06T22:33:42.607Z,8.20
2023-04-06T22:36:46.189Z,8.57
2023-04-06T22:39:50.901Z,9.63
2023-04-06T22:42:55.089Z,10.95
2023-04-06T22:45:58.448Z,10.95
2023-04-06T22:49:03.726Z,9.95
2023-04-06T22:52:07.042Z,8.30
2023-04-06T22:55:11.856Z,7.53
2023-04-06T22:58:15.247Z,9.75
2023-04-06T23:01:18.682Z,8.90
2023-04-06T23:04:22.165Z,7.97
2023-04-06T23:07:25.589Z,12.25
2023-04-06T23:10:30.512Z,8.50
2023-04-06T23:13:34.019Z,8.57
2023-04-06T23:16:39.750Z,8.48
2023-04-06T23:19:43.148Z,7.03
2023-04-06T23:22:46.645Z,9.32
2023-04-06T23:25:51.450Z,12.93
2023-04-06T23:28:56.238Z,10.13
2023-04-06T23:31:59.638Z,7.63
2023-04-06T23:35:03.096Z,8.70
2023-04-06T23:38:06.483Z,8.95
2023-04-06T23:41:15.669Z,9.10
2023-04-06T23:44:18.977Z,6.80
2023-04-06T23:47:22.244Z,8.20
2023-04-06T23:50:25.559Z,7.38
2023-04-06T23:53:29.220Z,7.78
2023-04-06T23:56:33.933Z,4.88
2023-04-06T23:59:37.254Z,10.55
